Time;durP1;ratioP1;P1;durP2;ratioP2;P2;SDS_P1;SDS_P2;PMS_P1;PMS_P2;Temp;Humidity;BMP_temperature;BMP_pressure;BME280_temperature;BME280_humidity;BME280_pressure;Samples;Min_cycle;Max_cycle;Signal;HPM_P1;HPM_P2
2022/04/29 00:00:18;;;;;;;;;;;;;;;;;;1027688;28;3675;-57
2022/04/29 00:01:05;;;;;;;;;;;;;;;;;;1027030;28;3902;-57
2022/04/29 00:01:35;;;;;;;;;;;;;;;;;;1027938;28;4073;-56
2022/04/29 00:02:06;;;;;;;;;;;;;;;;;;1028233;28;3876;-57
2022/04/29 00:02:39;;;;;;;;;;;;;;;;;;1020298;28;4340;-58
2022/04/29 00:03:10;;;;;;;;;;;;;;;;;;1019798;28;3625;-56
2022/04/29 00:03:42;;;;;;;;;;;;;;;;;;1024096;28;3688;-58
2022/04/29 00:04:12;;;;;;;;;;;;;;;;;;1025517;28;3684;-58
2022/04/29 00:04:43;;;;;;;;;;;;;;;;;;1027248;28;3748;-58
2022/04/29 00:05:14;;;;;;;;;;;;;;;;;;1026463;28;4451;-59
2022/04/29 00:05:46;;;;;;;;;;;;;;;;;;1028116;28;3876;-57
2022/04/29 00:06:16;;;;;;;;;;;;;;;;;;1025270;28;3692;-56
2022/04/29 00:06:46;;;;;;;;;;;;;;;;;;1024777;28;3687;-55
2022/04/29 00:07:16;;;;;;;;;;;;;;;;;;1027263;28;4220;-57
2022/04/29 00:07:47;;;;;;;;;;;;;;;;;;1027457;28;3754;-58
2022/04/29 00:08:17;;;;;;;;;;;;;;;;;;1024457;28;3913;-58
2022/04/29 00:08:47;;;;;;;;;;;;;;;;;;1024565;28;3941;-58
2022/04/29 00:09:17;;;;;;;;;;;;;;;;;;1025237;28;3671;-58
2022/04/29 00:09:48;;;;;;;;;;;;;;;;;;1025526;28;4062;-56
2022/04/29 00:10:19;;;;;;;;;;;;;;;;;;1027580;28;4061;-58
2022/04/29 00:10:49;;;;;;;;;;;;;;;;;;1027443;28;3597;-58
2022/04/29 00:11:20;;;;;;;;;;;;;;;;;;1024792;28;4181;-57
2022/04/29 00:11:51;;;;;;;;;;;;;;;;;;1023681;28;3761;-56
2022/04/29 00:12:22;;;;;;;;;;;;;;;;;;1023574;28;4587;-57
2022/04/29 00:12:53;;;;;;;;;;;;;;;;;;1024371;28;3848;-57
2022/04/29 00:13:24;;;;;;;;;;;;;;;;;;1028021;28;3709;-56
2022/04/29 00:13:55;;;;;;;;;;;;;;;;;;1027597;28;3612;-56
2022/04/29 00:14:25;;;;;;;;;;;;;;;;;;1028486;28;3910;-57
2022/04/29 00:14:55;;;;;;;;;;;;;;;;;;1024648;28;3743;-57
2022/04/29 00:15:26;;;;;;;;;;;;;;;;;;1021503;28;4302;-57
2022/04/29 00:15:56;;;;;;;;;;;;;;;;;;1022015;28;3610;-57
2022/04/29 00:16:26;;;;;;;;;;;;;;;;;;1021226;28;3642;-56
2022/04/29 00:17:05;;;;;;;;;;;;;;;;;;1027469;28;3894;-56
2022/04/29 00:17:49;;;;;;;;;;;;;;;;;;1028906;28;6367;-57
2022/04/29 00:18:19;;;;;;;;;;;;;;;;;;1028793;28;3634;-56
2022/04/29 00:18:49;;;;;;;;;;;;;;;;;;1027126;28;3592;-58
2022/04/29 00:19:20;;;;;;;;;;;;;;;;;;1027860;28;3876;-59
2022/04/29 00:19:50;;;;;;;;;;;;;;;;;;1027808;28;5408;-57
2022/04/29 00:20:21;;;;;;;;;;;;;;;;;;1029098;28;4065;-57
2022/04/29 00:20:51;;;;;;;;;;;;;;;;;;1030871;28;4291;-58
2022/04/29 00:21:22;;;;;;;;;;;;;;;;;;1027384;28;4250;-58
2022/04/29 00:21:53;;;;;;;;;;;;;;;;;;1029425;28;3730;-57
2022/04/29 00:22:23;;;;;;;;;;;;;;;;;;1028139;28;4106;-58
2022/04/29 00:22:54;;;;;;;;;;;;;;;;;;1029288;28;3755;-57
2022/04/29 00:23:24;;;;;;;;;;;;;;;;;;1031717;28;3743;-56
2022/04/29 00:23:54;;;;;;;;;;;;;;;;;;1033339;28;3775;-58
2022/04/29 00:24:25;;;;;;;;;;;;;;;;;;1032681;28;3707;-56
2022/04/29 00:24:55;;;;;;;;;;;;;;;;;;1034075;28;3938;-55
2022/04/29 00:25:25;;;;;;;;;;;;;;;;;;1031883;28;3773;-57
2022/04/29 00:25:55;;;;;;;;;;;;;;;;;;1033964;28;3829;-59
2022/04/29 00:26:26;;;;;;;;;;;;;;;;;;1032067;28;3554;-57
2022/04/29 00:26:56;;;;;;;;;;;;;;;;;;1034130;28;4305;-55
2022/04/29 00:27:26;;;;;;;;;;;;;;;;;;1031686;28;4043;-58
2022/04/29 00:27:57;;;;;;;;;;;;;;;;;;1033883;28;3987;-57
2022/04/29 00:28:27;;;;;;;;;;;;;;;;;;1032880;28;3952;-57
2022/04/29 00:28:58;;;;;;;;;;;;;;;;;;1032236;28;3845;-58
2022/04/29 00:29:28;;;;;;;;;;;;;;;;;;1032648;28;3712;-58
2022/04/29 00:29:58;;;;;;;;;;;;;;;;;;1034987;28;4042;-54
2022/04/29 00:30:29;;;;;;;;;;;;;;;;;;1031881;28;3869;-55
2022/04/29 00:30:59;;;;;;;;;;;;;;;;;;1032437;28;3833;-56
2022/04/29 00:31:30;;;;;;;;;;;;;;;;;;1032350;28;3949;-57
2022/04/29 00:32:00;;;;;;;;;;;;;;;;;;1032762;28;3832;-57
2022/04/29 00:32:30;;;;;;;;;;;;;;;;;;1032032;28;4154;-55
2022/04/29 00:33:01;;;;;;;;;;;;;;;;;;1032263;28;4362;-57
2022/04/29 00:33:31;;;;;;;;;;;;;;;;;;1033103;28;4183;-56
2022/04/29 00:34:02;;;;;;;;;;;;;;;;;;1032120;28;4262;-59
2022/04/29 00:34:32;;;;;;;;;;;;;;;;;;1033253;28;3933;-57
2022/04/29 00:35:03;;;;;;;;;;;;;;;;;;1032702;28;4873;-57
2022/04/29 00:35:34;;;;;;;;;;;;;;;;;;1032609;28;3709;-59
2022/04/29 00:36:04;;;;;;;;;;;;;;;;;;1032859;28;3876;-56
2022/04/29 00:36:34;;;;;;;;;;;;;;;;;;1031499;28;4026;-58
2022/04/29 00:37:05;;;;;;;;;;;;;;;;;;1032169;28;3563;-58
2022/04/29 00:37:46;;;;;;;;;;;;;;;;;;1032227;28;4979;-57
2022/04/29 00:38:17;;;;;;;;;;;;;;;;;;1032514;28;3621;-57
2022/04/29 00:38:47;;;;;;;;;;;;;;;;;;1029753;28;3669;-55
2022/04/29 00:39:17;;;;;;;;;;;;;;;;;;1028520;28;5063;-57
2022/04/29 00:39:47;;;;;;;;;;;;;;;;;;1029320;28;4039;-57
2022/04/29 00:40:22;;;;;;;;;;;;;;;;;;1029762;28;3902;-58
2022/04/29 00:40:52;;;;;;;;;;;;;;;;;;1033583;28;3819;-58
2022/04/29 00:41:23;;;;;;;;;;;;;;;;;;1032549;28;4140;-56
2022/04/29 00:41:53;;;;;;;;;;;;;;;;;;1033105;28;3807;-57
2022/04/29 00:42:24;;;;;;;;;;;;;;;;;;1032607;28;3747;-56
2022/04/29 00:42:55;;;;;;;;;;;;;;;;;;1032514;28;3617;-57
2022/04/29 00:43:25;;;;;;;;;;;;;;;;;;1033562;28;3674;-58
2022/04/29 00:43:59;;;;;;;;;;;;;;;;;;1032778;28;4285;-58
2022/04/29 00:44:29;;;;;;;;;;;;;;;;;;1028373;28;3823;-58
2022/04/29 00:45:00;;;;;;;;;;;;;;;;;;1028970;28;3862;-57
2022/04/29 00:45:30;;;;;;;;;;;;;;;;;;1030147;28;4159;-58
2022/04/29 00:46:00;;;;;;;;;;;;;;;;;;1029071;28;3626;-57
2022/04/29 00:46:34;;;;;;;;;;;;;;;;;;1030393;28;4045;-55
2022/04/29 00:47:05;;;;;;;;;;;;;;;;;;1032804;28;5844;-57
2022/04/29 00:47:35;;;;;;;;;;;;;;;;;;1033334;28;3970;-57
2022/04/29 00:48:08;;;;;;;;;;;;;;;;;;1028206;28;3936;-58
2022/04/29 00:48:38;;;;;;;;;;;;;;;;;;1029752;28;3666;-57
2022/04/29 00:49:14;;;;;;;;;;;;;;;;;;1028733;28;3673;-55
2022/04/29 00:49:44;;;;;;;;;;;;;;;;;;1030548;28;4479;-57
2022/04/29 00:50:16;;;;;;;;;;;;;;;;;;1032901;28;3732;-58
2022/04/29 00:50:46;;;;;;;;;;;;;;;;;;1032848;28;3812;-57
2022/04/29 00:51:16;;;;;;;;;;;;;;;;;;1033099;28;3556;-57
2022/04/29 00:51:51;;;;;;;;;;;;;;;;;;1031175;28;5169;-57
2022/04/29 00:52:23;;;;;;;;;;;;;;;;;;1031702;28;6361;-54
2022/04/29 00:52:54;;;;;;;;;;;;;;;;;;1034657;28;3675;-58
2022/04/29 00:53:26;;;;;;;;;;;;;;;;;;1031853;28;3805;-58
2022/04/29 00:53:57;;;;;;;;;;;;;;;;;;1033084;28;4168;-58
2022/04/29 00:54:31;;;;;;;;;;;;;;;;;;1031791;28;4582;-56
2022/04/29 00:55:04;;;;;;;;;;;;;;;;;;1032758;28;3678;-56
2022/04/29 00:55:34;;;;;;;;;;;;;;;;;;1032461;28;3661;-57
2022/04/29 00:56:05;;;;;;;;;;;;;;;;;;1031903;28;3607;-56
2022/04/29 00:56:40;;;;;;;;;;;;;;;;;;1027595;28;3633;-57
2022/04/29 00:57:14;;;;;;;;;;;;;;;;;;1028717;28;3960;-57
2022/04/29 00:58:08;;;;;;;;;;;;;;;;;;1028796;28;3774;-57
2022/04/29 00:58:42;;;;;;;;;;;;;;;;;;1032014;28;3698;-59
2022/04/29 00:59:15;;;;;;;;;;;;;;;;;;1031973;28;3804;-57
2022/04/29 00:59:55;;;;;;;;;;;;;;;;;;1031403;28;3955;-58
2022/04/29 01:00:25;;;;;;;;;;;;;;;;;;1032338;28;3918;-56
2022/04/29 01:00:55;;;;;;;;;;;;;;;;;;1032626;28;3694;-57
2022/04/29 01:01:26;;;;;;;;;;;;;;;;;;1030189;28;3970;-57
2022/04/29 01:01:57;;;;;;;;;;;;;;;;;;1033113;28;3765;-58
2022/04/29 01:02:28;;;;;;;;;;;;;;;;;;1032131;28;3846;-58
2022/04/29 01:03:00;;;;;;;;;;;;;;;;;;1032737;28;3671;-59
2022/04/29 01:03:31;;;;;;;;;;;;;;;;;;1032925;28;4340;-58
2022/04/29 01:04:02;;;;;;;;;;;;;;;;;;1033320;28;3603;-58
2022/04/29 01:04:35;;;;;;;;;;;;;;;;;;1032230;28;3681;-56
2022/04/29 01:05:07;;;;;;;;;;;;;;;;;;1031732;28;3855;-58
2022/04/29 01:05:39;;;;;;;;;;;;;;;;;;1031993;28;3693;-57
2022/04/29 01:06:09;;;;;;;;;;;;;;;;;;1032002;28;5194;-57
2022/04/29 01:06:47;;;;;;;;;;;;;;;;;;1031848;28;6661;-56
2022/04/29 01:07:17;;;;;;;;;;;;;;;;;;1032630;28;4054;-57
2022/04/29 01:07:48;;;;;;;;;;;;;;;;;;1032046;28;3860;-56
2022/04/29 01:08:18;;;;;;;;;;;;;;;;;;1025218;28;3917;-56
2022/04/29 01:08:48;;;;;;;;;;;;;;;;;;1021854;28;3655;-58
2022/04/29 01:09:19;;;;;;;;;;;;;;;;;;1019428;28;3827;-57
2022/04/29 01:09:49;;;;;;;;;;;;;;;;;;1021376;28;5569;-58
2022/04/29 01:10:20;;;;;;;;;;;;;;;;;;1028031;28;3706;-57
2022/04/29 01:10:50;;;;;;;;;;;;;;;;;;1033337;28;3780;-54
2022/04/29 01:11:22;;;;;;;;;;;;;;;;;;1031897;28;3800;-57
2022/04/29 01:11:53;;;;;;;;;;;;;;;;;;1032698;28;3686;-56
2022/04/29 01:12:25;;;;;;;;;;;;;;;;;;1032955;28;3946;-57
2022/04/29 01:12:56;;;;;;;;;;;;;;;;;;1029630;28;3688;-56
2022/04/29 01:13:27;;;;;;;;;;;;;;;;;;1028244;28;3756;-58
2022/04/29 01:13:57;;;;;;;;;;;;;;;;;;1028321;28;4292;-57
2022/04/29 01:14:27;;;;;;;;;;;;;;;;;;1025973;28;3862;-58
2022/04/29 01:14:58;;;;;;;;;;;;;;;;;;1024476;28;3838;-56
2022/04/29 01:15:29;;;;;;;;;;;;;;;;;;1027844;28;3804;-58
2022/04/29 01:15:59;;;;;;;;;;;;;;;;;;1024392;28;3723;-56
2022/04/29 01:16:29;;;;;;;;;;;;;;;;;;1029742;28;3876;-55
2022/04/29 01:17:06;;;;;;;;;;;;;;;;;;1028505;28;3761;-55
2022/04/29 01:17:44;;;;;;;;;;;;;;;;;;1030233;28;3707;-55
2022/04/29 01:18:20;;;;;;;;;;;;;;;;;;1032739;28;3776;-57
2022/04/29 01:18:52;;;;;;;;;;;;;;;;;;1033279;28;3710;-56
2022/04/29 01:19:22;;;;;;;;;;;;;;;;;;1032889;28;3853;-58
2022/04/29 01:19:52;;;;;;;;;;;;;;;;;;1033373;28;4044;-57
2022/04/29 01:20:26;;;;;;;;;;;;;;;;;;1032323;28;3685;-58
2022/04/29 01:21:04;;;;;;;;;;;;;;;;;;1027698;28;5467;-59
2022/04/29 01:21:35;;;;;;;;;;;;;;;;;;1026651;28;4234;-56
2022/04/29 01:22:05;;;;;;;;;;;;;;;;;;1029423;28;3791;-55
2022/04/29 01:22:35;;;;;;;;;;;;;;;;;;1028185;28;3653;-56
2022/04/29 01:23:06;;;;;;;;;;;;;;;;;;1032004;28;3684;-57
2022/04/29 01:23:36;;;;;;;;;;;;;;;;;;1028688;28;4022;-58
2022/04/29 01:24:08;;;;;;;;;;;;;;;;;;1031301;28;3927;-57
2022/04/29 01:24:38;;;;;;;;;;;;;;;;;;1032185;28;3888;-56
2022/04/29 01:25:09;;;;;;;;;;;;;;;;;;1031715;28;3634;-57
2022/04/29 01:25:40;;;;;;;;;;;;;;;;;;1031301;28;3848;-56
2022/04/29 01:26:14;;;;;;;;;;;;;;;;;;1030737;28;3972;-57
2022/04/29 01:26:45;;;;;;;;;;;;;;;;;;1032353;28;3643;-58
2022/04/29 01:27:15;;;;;;;;;;;;;;;;;;1029283;28;3793;-58
2022/04/29 01:27:46;;;;;;;;;;;;;;;;;;1032818;28;4625;-57
2022/04/29 01:28:16;;;;;;;;;;;;;;;;;;1031195;28;3757;-57
2022/04/29 01:28:54;;;;;;;;;;;;;;;;;;1033733;28;3851;-57
2022/04/29 01:29:26;;;;;;;;;;;;;;;;;;1031242;28;4333;-56
2022/04/29 01:30:13;;;;;;;;;;;;;;;;;;1032983;28;3751;-57
2022/04/29 01:30:43;;;;;;;;;;;;;;;;;;1032445;28;3867;-57
2022/04/29 01:31:15;;;;;;;;;;;;;;;;;;1033409;28;3728;-56
2022/04/29 01:31:46;;;;;;;;;;;;;;;;;;1027110;28;3799;-58
2022/04/29 01:32:16;;;;;;;;;;;;;;;;;;1027827;28;3815;-57
2022/04/29 01:32:47;;;;;;;;;;;;;;;;;;1029122;28;3815;-58
2022/04/29 01:33:18;;;;;;;;;;;;;;;;;;1028490;28;3841;-57
2022/04/29 01:33:49;;;;;;;;;;;;;;;;;;1032724;28;3685;-56
2022/04/29 01:34:19;;;;;;;;;;;;;;;;;;1028021;28;3715;-58
2022/04/29 01:34:49;;;;;;;;;;;;;;;;;;1027837;28;5084;-58
2022/04/29 01:35:19;;;;;;;;;;;;;;;;;;1028078;28;4279;-56
2022/04/29 01:35:50;;;;;;;;;;;;;;;;;;1028370;28;4086;-58
2022/04/29 01:36:21;;;;;;;;;;;;;;;;;;1032226;28;4044;-53
2022/04/29 01:36:51;;;;;;;;;;;;;;;;;;1031778;28;3649;-57
2022/04/29 01:37:21;;;;;;;;;;;;;;;;;;1030486;28;3700;-58
2022/04/29 01:37:52;;;;;;;;;;;;;;;;;;1033045;28;3503;-59
2022/04/29 01:38:22;;;;;;;;;;;;;;;;;;1031552;28;3565;-57
2022/04/29 01:38:52;;;;;;;;;;;;;;;;;;1033031;28;3749;-56
2022/04/29 01:39:23;;;;;;;;;;;;;;;;;;1032005;28;3774;-58
2022/04/29 01:39:53;;;;;;;;;;;;;;;;;;1032434;28;4201;-58
2022/04/29 01:40:23;;;;;;;;;;;;;;;;;;1033338;28;3523;-57
2022/04/29 01:40:53;;;;;;;;;;;;;;;;;;1032309;28;3813;-57
2022/04/29 01:41:24;;;;;;;;;;;;;;;;;;1032891;28;3593;-57
2022/04/29 01:41:54;;;;;;;;;;;;;;;;;;1031867;28;3724;-55
2022/04/29 01:42:24;;;;;;;;;;;;;;;;;;1031984;28;3842;-55
2022/04/29 01:42:54;;;;;;;;;;;;;;;;;;1032681;28;4047;-58
2022/04/29 01:43:25;;;;;;;;;;;;;;;;;;1032870;28;3677;-56
2022/04/29 01:43:56;;;;;;;;;;;;;;;;;;1032310;28;3914;-58
2022/04/29 01:44:26;;;;;;;;;;;;;;;;;;1032022;28;3665;-57
2022/04/29 01:44:57;;;;;;;;;;;;;;;;;;1032291;28;3656;-58
2022/04/29 01:45:27;;;;;;;;;;;;;;;;;;1032208;28;4072;-55
2022/04/29 01:45:57;;;;;;;;;;;;;;;;;;1031952;28;3600;-58
2022/04/29 01:46:27;;;;;;;;;;;;;;;;;;1029895;28;3871;-56
2022/04/29 01:46:58;;;;;;;;;;;;;;;;;;1033075;28;3658;-56
2022/04/29 01:47:28;;;;;;;;;;;;;;;;;;1032242;28;3701;-55
2022/04/29 01:47:58;;;;;;;;;;;;;;;;;;1032971;28;3777;-58
2022/04/29 01:48:28;;;;;;;;;;;;;;;;;;1031214;28;4030;-56
2022/04/29 01:48:59;;;;;;;;;;;;;;;;;;1032021;28;3682;-57
2022/04/29 01:49:29;;;;;;;;;;;;;;;;;;1029129;28;3515;-57
2022/04/29 01:50:00;;;;;;;;;;;;;;;;;;1029507;28;3497;-56
2022/04/29 01:50:30;;;;;;;;;;;;;;;;;;1029667;28;3640;-56
2022/04/29 01:51:05;;;;;;;;;;;;;;;;;;1029242;28;3557;-57
2022/04/29 01:51:35;;;;;;;;;;;;;;;;;;1027406;28;3647;-59
2022/04/29 01:52:06;;;;;;;;;;;;;;;;;;1032765;28;3720;-56
2022/04/29 01:52:36;;;;;;;;;;;;;;;;;;1033480;28;3752;-55
2022/04/29 01:53:06;;;;;;;;;;;;;;;;;;1031772;28;3719;-57
2022/04/29 01:53:37;;;;;;;;;;;;;;;;;;1031893;28;3832;-59
2022/04/29 01:54:10;;;;;;;;;;;;;;;;;;1029968;28;4347;-57
2022/04/29 01:54:41;;;;;;;;;;;;;;;;;;1031444;28;3525;-57
2022/04/29 01:55:11;;;;;;;;;;;;;;;;;;1032670;28;3719;-57
2022/04/29 01:55:41;;;;;;;;;;;;;;;;;;1027750;28;3417;-54
2022/04/29 01:56:11;;;;;;;;;;;;;;;;;;1029061;28;3707;-57
2022/04/29 01:56:42;;;;;;;;;;;;;;;;;;1029403;28;3797;-57
2022/04/29 01:57:12;;;;;;;;;;;;;;;;;;1028926;28;3659;-56
2022/04/29 01:57:43;;;;;;;;;;;;;;;;;;1032099;28;3985;-56
2022/04/29 01:58:13;;;;;;;;;;;;;;;;;;1029661;28;3664;-55
2022/04/29 01:58:44;;;;;;;;;;;;;;;;;;1028299;28;3534;-57
2022/04/29 01:59:14;;;;;;;;;;;;;;;;;;1029306;28;3891;-55
2022/04/29 01:59:44;;;;;;;;;;;;;;;;;;1027869;28;4012;-57
2022/04/29 02:00:15;;;;;;;;;;;;;;;;;;1031903;28;5981;-55
2022/04/29 02:00:45;;;;;;;;;;;;;;;;;;1031888;28;3644;-57
2022/04/29 02:01:15;;;;;;;;;;;;;;;;;;1028508;28;3639;-59
2022/04/29 02:01:46;;;;;;;;;;;;;;;;;;1028497;28;3577;-57
2022/04/29 02:02:17;;;;;;;;;;;;;;;;;;1028234;28;5576;-57
2022/04/29 02:02:47;;;;;;;;;;;;;;;;;;1029032;28;4065;-55
2022/04/29 02:03:17;;;;;;;;;;;;;;;;;;1032350;28;3692;-56
2022/04/29 02:03:47;;;;;;;;;;;;;;;;;;1032397;28;3636;-58
2022/04/29 02:04:18;;;;;;;;;;;;;;;;;;1028491;28;4183;-57
2022/04/29 02:04:48;;;;;;;;;;;;;;;;;;1032171;28;3619;-57
2022/04/29 02:05:18;;;;;;;;;;;;;;;;;;1029736;28;4359;-57
2022/04/29 02:05:49;;;;;;;;;;;;;;;;;;1032627;28;3525;-57
2022/04/29 02:06:19;;;;;;;;;;;;;;;;;;1032248;28;3877;-57
2022/04/29 02:06:49;;;;;;;;;;;;;;;;;;1029809;28;3877;-58
2022/04/29 02:07:19;;;;;;;;;;;;;;;;;;1032567;28;3686;-55
2022/04/29 02:07:50;;;;;;;;;;;;;;;;;;1030425;28;3509;-57
2022/04/29 02:08:20;;;;;;;;;;;;;;;;;;1032140;28;3610;-57
2022/04/29 02:08:50;;;;;;;;;;;;;;;;;;1031408;28;4069;-59
2022/04/29 02:09:21;;;;;;;;;;;;;;;;;;1032930;28;3694;-57
2022/04/29 02:09:51;;;;;;;;;;;;;;;;;;1032434;28;3913;-57
2022/04/29 02:10:21;;;;;;;;;;;;;;;;;;1032875;28;3707;-57
2022/04/29 02:10:51;;;;;;;;;;;;;;;;;;1032315;28;4084;-58
2022/04/29 02:11:22;;;;;;;;;;;;;;;;;;1032132;28;3645;-56
2022/04/29 02:12:05;;;;;;;;;;;;;;;;;;1033054;28;3622;-57
2022/04/29 02:12:35;;;;;;;;;;;;;;;;;;1032761;28;3645;-58
2022/04/29 02:13:06;;;;;;;;;;;;;;;;;;1031824;28;3862;-56
2022/04/29 02:13:37;;;;;;;;;;;;;;;;;;1032045;28;3771;-55
2022/04/29 02:14:08;;;;;;;;;;;;;;;;;;1032574;28;3458;-54
2022/04/29 02:14:39;;;;;;;;;;;;;;;;;;1032224;28;3798;-57
2022/04/29 02:15:10;;;;;;;;;;;;;;;;;;1032043;28;3995;-57
2022/04/29 02:15:40;;;;;;;;;;;;;;;;;;1031617;28;3618;-55
2022/04/29 02:16:10;;;;;;;;;;;;;;;;;;1031864;28;3971;-58
2022/04/29 02:16:40;;;;;;;;;;;;;;;;;;1032760;28;4362;-57
2022/04/29 02:17:17;;;;;;;;;;;;;;;;;;1032754;28;4334;-58
2022/04/29 02:17:54;;;;;;;;;;;;;;;;;;1031779;28;3827;-57
2022/04/29 02:18:31;;;;;;;;;;;;;;;;;;1031756;28;3726;-57
2022/04/29 02:19:01;;;;;;;;;;;;;;;;;;1030789;28;3976;-58
2022/04/29 02:19:32;;;;;;;;;;;;;;;;;;1028639;28;4577;-56
2022/04/29 02:20:03;;;;;;;;;;;;;;;;;;1028567;28;3812;-57
2022/04/29 02:20:33;;;;;;;;;;;;;;;;;;1027377;28;3961;-57
2022/04/29 02:21:03;;;;;;;;;;;;;;;;;;1028202;28;3907;-54
2022/04/29 02:21:33;;;;;;;;;;;;;;;;;;1031912;28;3773;-57
2022/04/29 02:22:04;;;;;;;;;;;;;;;;;;1031799;28;4072;-57
2022/04/29 02:22:35;;;;;;;;;;;;;;;;;;1028716;28;4114;-58
2022/04/29 02:23:11;;;;;;;;;;;;;;;;;;1029788;28;4014;-56
2022/04/29 02:23:42;;;;;;;;;;;;;;;;;;1025062;28;4678;-57
2022/04/29 02:24:12;;;;;;;;;;;;;;;;;;1025956;28;3609;-57
2022/04/29 02:24:42;;;;;;;;;;;;;;;;;;1025600;28;4169;-57
2022/04/29 02:25:12;;;;;;;;;;;;;;;;;;1022248;28;4568;-58
2022/04/29 02:25:43;;;;;;;;;;;;;;;;;;1027281;28;3635;-58
2022/04/29 02:26:13;;;;;;;;;;;;;;;;;;1029272;28;3589;-56
2022/04/29 02:26:43;;;;;;;;;;;;;;;;;;1026740;28;3561;-55
2022/04/29 02:27:14;;;;;;;;;;;;;;;;;;1033202;28;4242;-55
2022/04/29 02:27:44;;;;;;;;;;;;;;;;;;1027147;28;4641;-56
2022/04/29 02:28:14;;;;;;;;;;;;;;;;;;1028595;28;3511;-58
2022/04/29 02:28:45;;;;;;;;;;;;;;;;;;1027487;28;4155;-58
2022/04/29 02:29:15;;;;;;;;;;;;;;;;;;1028695;28;4144;-58
2022/04/29 02:29:46;;;;;;;;;;;;;;;;;;1027556;28;4099;-56
2022/04/29 02:30:16;;;;;;;;;;;;;;;;;;1030913;28;3458;-56
2022/04/29 02:30:46;;;;;;;;;;;;;;;;;;1031891;28;3910;-56
2022/04/29 02:31:16;;;;;;;;;;;;;;;;;;1032465;28;3542;-58
2022/04/29 02:31:47;;;;;;;;;;;;;;;;;;1027525;28;3788;-56
2022/04/29 02:32:18;;;;;;;;;;;;;;;;;;1028267;28;3590;-58
2022/04/29 02:32:48;;;;;;;;;;;;;;;;;;1025907;28;3596;-58
2022/04/29 02:33:18;;;;;;;;;;;;;;;;;;1021729;28;3844;-57
2022/04/29 02:33:49;;;;;;;;;;;;;;;;;;1022736;28;3919;-57
2022/04/29 02:34:19;;;;;;;;;;;;;;;;;;1024700;28;3998;-57
2022/04/29 02:34:49;;;;;;;;;;;;;;;;;;1022884;28;3656;-54
2022/04/29 02:35:19;;;;;;;;;;;;;;;;;;1030248;28;4439;-57
2022/04/29 02:35:50;;;;;;;;;;;;;;;;;;1031844;28;3532;-57
2022/04/29 02:36:21;;;;;;;;;;;;;;;;;;1033497;28;3670;-57
2022/04/29 02:36:52;;;;;;;;;;;;;;;;;;1031822;28;3652;-55
2022/04/29 02:37:22;;;;;;;;;;;;;;;;;;1027467;28;3559;-55
2022/04/29 02:37:53;;;;;;;;;;;;;;;;;;1028550;28;3645;-56
2022/04/29 02:38:23;;;;;;;;;;;;;;;;;;1028161;28;3630;-57
2022/04/29 02:38:53;;;;;;;;;;;;;;;;;;1027751;28;3898;-57
2022/04/29 02:39:24;;;;;;;;;;;;;;;;;;1031080;28;3541;-56
2022/04/29 02:39:54;;;;;;;;;;;;;;;;;;1032857;28;3407;-57
2022/04/29 02:40:24;;;;;;;;;;;;;;;;;;1032163;28;4285;-57
2022/04/29 02:40:55;;;;;;;;;;;;;;;;;;1033066;28;3710;-57
2022/04/29 02:41:25;;;;;;;;;;;;;;;;;;1031125;28;3861;-56
2022/04/29 02:41:56;;;;;;;;;;;;;;;;;;1032611;28;4287;-55
2022/04/29 02:42:28;;;;;;;;;;;;;;;;;;1032532;28;3503;-57
2022/04/29 02:42:58;;;;;;;;;;;;;;;;;;1032013;28;4259;-56
2022/04/29 02:43:28;;;;;;;;;;;;;;;;;;1032024;28;3613;-56
2022/04/29 02:43:58;;;;;;;;;;;;;;;;;;1031879;28;4777;-57
2022/04/29 02:44:29;;;;;;;;;;;;;;;;;;1028413;28;3575;-52
2022/04/29 02:44:59;;;;;;;;;;;;;;;;;;1028202;28;3914;-54
2022/04/29 02:45:29;;;;;;;;;;;;;;;;;;1027382;28;3494;-58
2022/04/29 02:45:59;;;;;;;;;;;;;;;;;;1028655;28;3835;-57
2022/04/29 02:46:30;;;;;;;;;;;;;;;;;;1028412;28;3770;-57
2022/04/29 02:47:09;;;;;;;;;;;;;;;;;;1030672;28;3746;-57
2022/04/29 02:47:39;;;;;;;;;;;;;;;;;;1032182;28;3546;-55
2022/04/29 02:48:10;;;;;;;;;;;;;;;;;;1032256;28;3765;-57
2022/04/29 02:48:40;;;;;;;;;;;;;;;;;;1031292;28;4641;-57
2022/04/29 02:49:10;;;;;;;;;;;;;;;;;;1032511;28;3591;-58
2022/04/29 02:49:42;;;;;;;;;;;;;;;;;;1031354;28;4380;-56
2022/04/29 02:50:12;;;;;;;;;;;;;;;;;;1030517;28;5104;-58
2022/04/29 02:50:43;;;;;;;;;;;;;;;;;;1030602;28;4947;-56
2022/04/29 02:51:15;;;;;;;;;;;;;;;;;;1031190;28;3798;-55
2022/04/29 02:51:45;;;;;;;;;;;;;;;;;;1030748;28;3650;-56
2022/04/29 02:52:15;;;;;;;;;;;;;;;;;;1032100;28;3626;-57
2022/04/29 02:52:46;;;;;;;;;;;;;;;;;;1032469;28;3855;-58
2022/04/29 02:53:16;;;;;;;;;;;;;;;;;;1033047;28;3705;-55
2022/04/29 02:53:46;;;;;;;;;;;;;;;;;;1028311;28;3713;-55
2022/04/29 02:54:16;;;;;;;;;;;;;;;;;;1028966;28;4855;-56
2022/04/29 02:54:47;;;;;;;;;;;;;;;;;;1027463;28;3464;-58
2022/04/29 02:55:17;;;;;;;;;;;;;;;;;;1028636;28;4162;-55
2022/04/29 02:55:47;;;;;;;;;;;;;;;;;;1034312;28;3608;-58
2022/04/29 02:56:18;;;;;;;;;;;;;;;;;;1032716;28;3640;-57
2022/04/29 02:56:52;;;;;;;;;;;;;;;;;;1032242;28;3754;-55
2022/04/29 02:57:22;;;;;;;;;;;;;;;;;;1031956;28;3824;-58
2022/04/29 02:57:52;;;;;;;;;;;;;;;;;;1032642;28;3522;-57
2022/04/29 02:58:23;;;;;;;;;;;;;;;;;;1031502;28;3774;-54
2022/04/29 02:58:53;;;;;;;;;;;;;;;;;;1031835;28;3744;-55
2022/04/29 02:59:23;;;;;;;;;;;;;;;;;;1031644;28;3571;-56
2022/04/29 02:59:55;;;;;;;;;;;;;;;;;;1028309;28;3743;-57
2022/04/29 03:00:25;;;;;;;;;;;;;;;;;;1027475;28;3561;-56
2022/04/29 03:00:56;;;;;;;;;;;;;;;;;;1029153;28;4949;-55
2022/04/29 03:01:26;;;;;;;;;;;;;;;;;;1027824;28;3714;-58
2022/04/29 03:01:57;;;;;;;;;;;;;;;;;;1032017;28;3601;-59
2022/04/29 03:02:27;;;;;;;;;;;;;;;;;;1031522;28;3740;-58
2022/04/29 03:02:57;;;;;;;;;;;;;;;;;;1034050;28;3665;-57
2022/04/29 03:03:28;;;;;;;;;;;;;;;;;;1031135;28;3917;-57
2022/04/29 03:03:58;;;;;;;;;;;;;;;;;;1031456;28;4025;-58
2022/04/29 03:04:28;;;;;;;;;;;;;;;;;;1027113;28;3654;-58
2022/04/29 03:04:59;;;;;;;;;;;;;;;;;;1026925;28;3634;-58
2022/04/29 03:05:29;;;;;;;;;;;;;;;;;;1028217;28;3602;-57
2022/04/29 03:05:59;;;;;;;;;;;;;;;;;;1027616;28;4485;-56
2022/04/29 03:06:29;;;;;;;;;;;;;;;;;;1031425;28;4306;-56
2022/04/29 03:07:00;;;;;;;;;;;;;;;;;;1032969;28;3789;-58
2022/04/29 03:07:30;;;;;;;;;;;;;;;;;;1031947;28;6469;-57
2022/04/29 03:08:07;;;;;;;;;;;;;;;;;;1033089;28;4055;-56
2022/04/29 03:08:38;;;;;;;;;;;;;;;;;;1032285;28;5509;-56
2022/04/29 03:09:08;;;;;;;;;;;;;;;;;;1032560;28;3767;-57
2022/04/29 03:09:38;;;;;;;;;;;;;;;;;;1032220;28;3772;-56
2022/04/29 03:10:09;;;;;;;;;;;;;;;;;;1033060;28;3943;-56
2022/04/29 03:10:39;;;;;;;;;;;;;;;;;;1032806;28;3780;-56
2022/04/29 03:11:10;;;;;;;;;;;;;;;;;;1032606;28;4783;-56
2022/04/29 03:11:40;;;;;;;;;;;;;;;;;;1032554;28;3749;-55
2022/04/29 03:12:12;;;;;;;;;;;;;;;;;;1032055;28;4894;-56
2022/04/29 03:12:42;;;;;;;;;;;;;;;;;;1032539;28;3750;-58
2022/04/29 03:13:13;;;;;;;;;;;;;;;;;;1032816;28;3631;-56
2022/04/29 03:13:43;;;;;;;;;;;;;;;;;;1033496;28;4145;-57
2022/04/29 03:14:14;;;;;;;;;;;;;;;;;;1031947;28;3793;-57
2022/04/29 03:14:44;;;;;;;;;;;;;;;;;;1032571;28;3692;-56
2022/04/29 03:15:17;;;;;;;;;;;;;;;;;;1031615;28;4941;-56
2022/04/29 03:15:47;;;;;;;;;;;;;;;;;;1031754;28;3788;-57
2022/04/29 03:16:18;;;;;;;;;;;;;;;;;;1027338;28;5487;-54
2022/04/29 03:16:48;;;;;;;;;;;;;;;;;;1028934;28;3945;-56
2022/04/29 03:18:21;;;;;;;;;;;;;;;;;;1019474;28;3603;-58
2022/04/29 03:18:51;;;;;;;;;;;;;;;;;;1022426;28;6265;-57
2022/04/29 03:19:22;;;;;;;;;;;;;;;;;;1027529;28;3952;-59
2022/04/29 03:19:53;;;;;;;;;;;;;;;;;;1027898;28;3953;-57
2022/04/29 03:20:23;;;;;;;;;;;;;;;;;;1027505;28;3543;-56
2022/04/29 03:20:56;;;;;;;;;;;;;;;;;;1026485;28;3599;-58
2022/04/29 03:21:26;;;;;;;;;;;;;;;;;;1025774;28;3709;-58
2022/04/29 03:21:56;;;;;;;;;;;;;;;;;;1023264;28;3662;-57
2022/04/29 03:22:27;;;;;;;;;;;;;;;;;;1026094;28;3983;-59
2022/04/29 03:22:57;;;;;;;;;;;;;;;;;;1027363;28;3625;-55
2022/04/29 03:23:27;;;;;;;;;;;;;;;;;;1028747;28;3932;-58
2022/04/29 03:23:58;;;;;;;;;;;;;;;;;;1027110;28;3678;-58
2022/04/29 03:24:28;;;;;;;;;;;;;;;;;;1027195;28;4009;-55
2022/04/29 03:24:58;;;;;;;;;;;;;;;;;;1026738;28;4223;-57
2022/04/29 03:25:28;;;;;;;;;;;;;;;;;;1028673;28;3651;-56
2022/04/29 03:25:59;;;;;;;;;;;;;;;;;;1027506;28;4562;-58
2022/04/29 03:26:29;;;;;;;;;;;;;;;;;;1023934;28;3501;-57
2022/04/29 03:27:00;;;;;;;;;;;;;;;;;;1025200;28;3731;-58
2022/04/29 03:27:30;;;;;;;;;;;;;;;;;;1022694;28;3541;-58
2022/04/29 03:28:02;;;;;;;;;;;;;;;;;;1025323;28;3707;-56
2022/04/29 03:28:33;;;;;;;;;;;;;;;;;;1027354;28;3775;-57
2022/04/29 03:29:03;;;;;;;;;;;;;;;;;;1029244;28;3518;-54
2022/04/29 03:29:33;;;;;;;;;;;;;;;;;;1026379;28;5698;-57
2022/04/29 03:30:04;;;;;;;;;;;;;;;;;;1028896;28;3502;-58
2022/04/29 03:30:34;;;;;;;;;;;;;;;;;;1028203;28;4161;-58
2022/04/29 03:31:05;;;;;;;;;;;;;;;;;;1029255;28;3610;-58
2022/04/29 03:31:35;;;;;;;;;;;;;;;;;;1023790;28;4554;-57
2022/04/29 03:32:06;;;;;;;;;;;;;;;;;;1024895;28;3663;-57
2022/04/29 03:32:36;;;;;;;;;;;;;;;;;;1021433;28;3827;-54
2022/04/29 03:33:07;;;;;;;;;;;;;;;;;;1024012;28;3804;-55
2022/04/29 03:33:37;;;;;;;;;;;;;;;;;;1025922;28;4064;-55
2022/04/29 03:34:08;;;;;;;;;;;;;;;;;;1029072;28;3445;-58
2022/04/29 03:34:38;;;;;;;;;;;;;;;;;;1028466;28;3561;-58
2022/04/29 03:35:08;;;;;;;;;;;;;;;;;;1025076;28;3999;-58
2022/04/29 03:35:43;;;;;;;;;;;;;;;;;;1026644;28;4547;-58
2022/04/29 03:36:14;;;;;;;;;;;;;;;;;;1028222;28;3696;-57
2022/04/29 03:36:45;;;;;;;;;;;;;;;;;;1025492;28;3453;-55
2022/04/29 03:37:15;;;;;;;;;;;;;;;;;;1024335;28;3911;-57